sensor_id;sensor_type;location;lat;lon;timestamp;P1;durP1;ratioP1;P2;durP2;ratioP2
26411;SDS011;59168;;;2022-08-19T00:01:52;24.50;;;19.10;;
26411;SDS011;59168;;;2022-08-19T00:04:20;21.40;;;19.10;;
26411;SDS011;59168;;;2022-08-19T00:06:48;22.65;;;20.13;;
26411;SDS011;59168;;;2022-08-19T00:09:14;22.13;;;19.23;;
26411;SDS011;59168;;;2022-08-19T00:11:41;23.73;;;19.50;;
26411;SDS011;59168;;;2022-08-19T00:14:09;23.15;;;19.27;;
26411;SDS011;59168;;;2022-08-19T00:16:36;24.00;;;19.52;;
26411;SDS011;59168;;;2022-08-19T00:19:03;22.90;;;20.13;;
26411;SDS011;59168;;;2022-08-19T00:21:29;24.35;;;19.98;;
26411;SDS011;59168;;;2022-08-19T00:23:55;25.45;;;21.92;;
26411;SDS011;59168;;;2022-08-19T00:26:23;26.80;;;22.30;;
26411;SDS011;59168;;;2022-08-19T00:28:49;27.52;;;22.20;;
26411;SDS011;59168;;;2022-08-19T00:31:15;26.80;;;21.73;;
26411;SDS011;59168;;;2022-08-19T00:33:41;28.85;;;22.15;;
26411;SDS011;59168;;;2022-08-19T00:36:08;25.25;;;22.50;;
26411;SDS011;59168;;;2022-08-19T00:38:38;26.67;;;22.90;;
26411;SDS011;59168;;;2022-08-19T00:41:08;26.27;;;22.08;;
26411;SDS011;59168;;;2022-08-19T00:43:35;25.00;;;22.23;;
26411;SDS011;59168;;;2022-08-19T00:46:01;26.80;;;22.58;;
26411;SDS011;59168;;;2022-08-19T00:48:29;26.95;;;22.08;;
26411;SDS011;59168;;;2022-08-19T00:50:56;27.83;;;22.92;;
26411;SDS011;59168;;;2022-08-19T00:53:24;28.33;;;23.38;;
26411;SDS011;59168;;;2022-08-19T00:55:54;25.52;;;22.00;;
26411;SDS011;59168;;;2022-08-19T00:58:24;27.02;;;23.05;;
26411;SDS011;59168;;;2022-08-19T01:00:52;30.63;;;24.25;;
26411;SDS011;59168;;;2022-08-19T01:03:19;26.45;;;23.33;;
26411;SDS011;59168;;;2022-08-19T01:05:46;27.88;;;23.00;;
26411;SDS011;59168;;;2022-08-19T01:08:13;26.52;;;22.88;;
26411;SDS011;59168;;;2022-08-19T01:10:42;28.33;;;23.83;;
26411;SDS011;59168;;;2022-08-19T01:13:11;29.20;;;24.30;;
26411;SDS011;59168;;;2022-08-19T01:15:42;28.90;;;24.85;;
26411;SDS011;59168;;;2022-08-19T01:18:12;29.38;;;23.92;;
26411;SDS011;59168;;;2022-08-19T01:20:40;32.95;;;25.60;;
26411;SDS011;59168;;;2022-08-19T01:23:07;29.67;;;24.88;;
26411;SDS011;59168;;;2022-08-19T01:25:40;29.35;;;24.85;;
26411;SDS011;59168;;;2022-08-19T01:28:23;34.63;;;27.30;;
26411;SDS011;59168;;;2022-08-19T01:30:53;31.08;;;26.25;;
26411;SDS011;59168;;;2022-08-19T01:33:19;30.75;;;25.50;;
26411;SDS011;59168;;;2022-08-19T01:35:45;28.75;;;22.73;;
26411;SDS011;59168;;;2022-08-19T01:38:23;31.13;;;24.10;;
26411;SDS011;59168;;;2022-08-19T01:40:51;29.42;;;23.45;;
26411;SDS011;59168;;;2022-08-19T01:43:17;29.52;;;24.42;;
26411;SDS011;59168;;;2022-08-19T01:45:44;31.45;;;24.58;;
26411;SDS011;59168;;;2022-08-19T01:48:11;33.65;;;25.98;;
26411;SDS011;59168;;;2022-08-19T01:50:38;35.13;;;25.38;;
26411;SDS011;59168;;;2022-08-19T01:53:05;31.98;;;25.63;;
26411;SDS011;59168;;;2022-08-19T01:55:32;33.92;;;25.67;;
26411;SDS011;59168;;;2022-08-19T01:58:01;33.85;;;24.65;;
26411;SDS011;59168;;;2022-08-19T02:00:30;34.10;;;25.73;;
26411;SDS011;59168;;;2022-08-19T02:02:57;37.00;;;27.17;;
26411;SDS011;59168;;;2022-08-19T02:05:23;38.83;;;28.50;;
26411;SDS011;59168;;;2022-08-19T02:07:48;37.95;;;28.63;;
26411;SDS011;59168;;;2022-08-19T02:10:17;39.42;;;28.80;;
26411;SDS011;59168;;;2022-08-19T02:12:45;41.35;;;28.80;;
26411;SDS011;59168;;;2022-08-19T02:15:12;37.70;;;27.80;;
26411;SDS011;59168;;;2022-08-19T02:17:37;41.10;;;29.40;;
26411;SDS011;59168;;;2022-08-19T02:20:04;34.65;;;27.10;;
26411;SDS011;59168;;;2022-08-19T02:22:31;35.80;;;26.80;;
26411;SDS011;59168;;;2022-08-19T02:24:57;35.47;;;26.58;;
26411;SDS011;59168;;;2022-08-19T02:27:23;36.35;;;27.35;;
26411;SDS011;59168;;;2022-08-19T02:29:49;36.00;;;27.50;;
26411;SDS011;59168;;;2022-08-19T02:32:15;34.80;;;26.58;;
26411;SDS011;59168;;;2022-08-19T02:34:43;35.42;;;26.20;;
26411;SDS011;59168;;;2022-08-19T02:37:09;35.78;;;28.25;;
26411;SDS011;59168;;;2022-08-19T02:39:54;39.38;;;29.20;;
26411;SDS011;59168;;;2022-08-19T02:42:20;37.25;;;28.63;;
26411;SDS011;59168;;;2022-08-19T02:44:45;37.70;;;29.25;;
26411;SDS011;59168;;;2022-08-19T02:47:11;35.92;;;28.65;;
26411;SDS011;59168;;;2022-08-19T02:49:39;37.50;;;28.92;;
26411;SDS011;59168;;;2022-08-19T02:52:04;38.05;;;29.42;;
26411;SDS011;59168;;;2022-08-19T02:54:30;41.63;;;29.58;;
26411;SDS011;59168;;;2022-08-19T02:56:56;38.10;;;28.63;;
26411;SDS011;59168;;;2022-08-19T02:59:21;42.15;;;30.23;;
26411;SDS011;59168;;;2022-08-19T03:01:47;41.95;;;30.63;;
26411;SDS011;59168;;;2022-08-19T03:04:15;39.42;;;31.60;;
26411;SDS011;59168;;;2022-08-19T03:06:42;42.15;;;32.15;;
26411;SDS011;59168;;;2022-08-19T03:09:10;43.15;;;32.85;;
26411;SDS011;59168;;;2022-08-19T03:11:36;43.50;;;32.42;;
26411;SDS011;59168;;;2022-08-19T03:14:03;40.20;;;31.30;;
26411;SDS011;59168;;;2022-08-19T03:16:31;47.28;;;34.20;;
26411;SDS011;59168;;;2022-08-19T03:18:59;45.63;;;33.10;;
26411;SDS011;59168;;;2022-08-19T03:21:25;43.60;;;33.65;;
26411;SDS011;59168;;;2022-08-19T03:23:56;44.92;;;33.47;;
26411;SDS011;59168;;;2022-08-19T03:26:23;44.53;;;33.65;;
26411;SDS011;59168;;;2022-08-19T03:28:49;46.35;;;34.42;;
26411;SDS011;59168;;;2022-08-19T03:31:15;49.10;;;35.03;;
26411;SDS011;59168;;;2022-08-19T03:33:47;46.55;;;34.15;;
26411;SDS011;59168;;;2022-08-19T03:36:15;44.22;;;33.90;;
26411;SDS011;59168;;;2022-08-19T03:38:46;50.92;;;34.00;;
26411;SDS011;59168;;;2022-08-19T03:41:15;43.42;;;33.25;;
26411;SDS011;59168;;;2022-08-19T03:43:44;47.83;;;34.78;;
26411;SDS011;59168;;;2022-08-19T03:46:17;48.35;;;36.50;;
26411;SDS011;59168;;;2022-08-19T03:48:45;50.80;;;36.42;;
26411;SDS011;59168;;;2022-08-19T03:51:19;52.97;;;37.92;;
26411;SDS011;59168;;;2022-08-19T03:53:57;51.35;;;38.00;;
26411;SDS011;59168;;;2022-08-19T03:56:24;46.80;;;36.65;;
26411;SDS011;59168;;;2022-08-19T03:58:51;56.47;;;39.40;;
26411;SDS011;59168;;;2022-08-19T04:01:18;50.60;;;37.50;;
26411;SDS011;59168;;;2022-08-19T04:03:46;51.53;;;37.13;;
26411;SDS011;59168;;;2022-08-19T04:06:13;50.45;;;37.13;;
26411;SDS011;59168;;;2022-08-19T04:08:44;52.83;;;37.67;;
26411;SDS011;59168;;;2022-08-19T04:11:11;48.35;;;35.42;;
26411;SDS011;59168;;;2022-08-19T04:13:39;50.83;;;35.38;;
26411;SDS011;59168;;;2022-08-19T04:16:05;51.45;;;36.33;;
26411;SDS011;59168;;;2022-08-19T04:18:33;49.42;;;36.90;;
26411;SDS011;59168;;;2022-08-19T04:20:58;55.20;;;37.13;;
26411;SDS011;59168;;;2022-08-19T04:23:25;53.35;;;35.63;;
26411;SDS011;59168;;;2022-08-19T04:25:53;50.33;;;35.55;;
26411;SDS011;59168;;;2022-08-19T04:28:19;48.60;;;35.60;;
26411;SDS011;59168;;;2022-08-19T04:30:47;54.25;;;37.13;;
26411;SDS011;59168;;;2022-08-19T04:33:15;49.53;;;36.55;;
26411;SDS011;59168;;;2022-08-19T04:35:45;44.35;;;34.33;;
26411;SDS011;59168;;;2022-08-19T04:38:13;48.10;;;35.28;;
26411;SDS011;59168;;;2022-08-19T04:40:44;46.50;;;34.13;;
26411;SDS011;59168;;;2022-08-19T04:43:33;44.28;;;31.73;;
26411;SDS011;59168;;;2022-08-19T04:46:06;42.00;;;31.88;;
26411;SDS011;59168;;;2022-08-19T04:48:37;39.28;;;29.73;;
26411;SDS011;59168;;;2022-08-19T04:51:05;38.63;;;30.65;;
26411;SDS011;59168;;;2022-08-19T04:53:34;35.42;;;27.80;;
26411;SDS011;59168;;;2022-08-19T04:56:04;35.70;;;26.85;;
26411;SDS011;59168;;;2022-08-19T04:58:32;29.02;;;24.95;;
26411;SDS011;59168;;;2022-08-19T05:00:58;29.88;;;24.08;;
26411;SDS011;59168;;;2022-08-19T05:03:27;22.53;;;20.20;;
26411;SDS011;59168;;;2022-08-19T05:05:56;20.27;;;17.67;;
26411;SDS011;59168;;;2022-08-19T05:08:21;17.92;;;15.82;;
26411;SDS011;59168;;;2022-08-19T05:10:48;15.75;;;14.15;;
26411;SDS011;59168;;;2022-08-19T05:13:16;15.90;;;13.77;;
26411;SDS011;59168;;;2022-08-19T05:15:53;14.85;;;13.07;;
26411;SDS011;59168;;;2022-08-19T05:18:20;13.65;;;11.98;;
26411;SDS011;59168;;;2022-08-19T05:21:06;13.13;;;11.32;;
26411;SDS011;59168;;;2022-08-19T05:23:54;13.07;;;10.73;;
26411;SDS011;59168;;;2022-08-19T05:26:20;12.55;;;10.90;;
26411;SDS011;59168;;;2022-08-19T05:28:45;11.93;;;10.18;;
26411;SDS011;59168;;;2022-08-19T05:31:11;12.38;;;10.95;;
26411;SDS011;59168;;;2022-08-19T05:33:37;12.15;;;11.05;;
26411;SDS011;59168;;;2022-08-19T05:36:04;14.82;;;11.90;;
26411;SDS011;59168;;;2022-08-19T05:38:32;13.50;;;12.10;;
26411;SDS011;59168;;;2022-08-19T05:40:58;14.93;;;12.27;;
26411;SDS011;59168;;;2022-08-19T05:43:24;16.92;;;11.88;;
26411;SDS011;59168;;;2022-08-19T05:45:50;11.57;;;10.48;;
26411;SDS011;59168;;;2022-08-19T05:48:16;11.73;;;10.52;;
26411;SDS011;59168;;;2022-08-19T05:50:45;10.75;;;9.65;;
26411;SDS011;59168;;;2022-08-19T05:53:11;11.10;;;10.00;;
26411;SDS011;59168;;;2022-08-19T05:55:37;11.93;;;10.73;;
26411;SDS011;59168;;;2022-08-19T05:58:03;13.18;;;10.65;;
26411;SDS011;59168;;;2022-08-19T06:00:32;12.27;;;10.73;;
26411;SDS011;59168;;;2022-08-19T06:02:58;12.15;;;10.77;;
26411;SDS011;59168;;;2022-08-19T06:05:28;13.02;;;11.68;;
26411;SDS011;59168;;;2022-08-19T06:07:56;13.63;;;12.23;;
26411;SDS011;59168;;;2022-08-19T06:10:23;15.27;;;12.85;;
26411;SDS011;59168;;;2022-08-19T06:12:51;15.85;;;13.43;;
26411;SDS011;59168;;;2022-08-19T06:15:17;15.43;;;13.93;;
26411;SDS011;59168;;;2022-08-19T06:17:43;14.57;;;13.05;;
26411;SDS011;59168;;;2022-08-19T06:20:13;15.38;;;13.02;;
26411;SDS011;59168;;;2022-08-19T06:22:41;16.20;;;14.60;;
26411;SDS011;59168;;;2022-08-19T06:25:08;16.60;;;14.02;;
26411;SDS011;59168;;;2022-08-19T06:27:34;16.60;;;14.90;;
26411;SDS011;59168;;;2022-08-19T06:30:00;15.77;;;13.85;;
26411;SDS011;59168;;;2022-08-19T06:32:27;15.82;;;14.20;;
26411;SDS011;59168;;;2022-08-19T06:34:53;16.30;;;13.00;;
26411;SDS011;59168;;;2022-08-19T06:37:19;15.23;;;13.65;;
26411;SDS011;59168;;;2022-08-19T06:39:46;17.05;;;13.77;;
26411;SDS011;59168;;;2022-08-19T06:42:13;16.40;;;13.38;;
26411;SDS011;59168;;;2022-08-19T06:44:41;16.90;;;14.45;;
26411;SDS011;59168;;;2022-08-19T06:47:13;16.48;;;14.05;;
26411;SDS011;59168;;;2022-08-19T06:49:43;18.75;;;14.23;;
26411;SDS011;59168;;;2022-08-19T06:52:10;14.82;;;13.32;;
26411;SDS011;59168;;;2022-08-19T06:54:39;19.58;;;13.98;;
26411;SDS011;59168;;;2022-08-19T06:57:06;17.35;;;14.65;;
26411;SDS011;59168;;;2022-08-19T06:59:34;15.68;;;13.50;;
26411;SDS011;59168;;;2022-08-19T07:02:02;15.55;;;14.05;;
26411;SDS011;59168;;;2022-08-19T07:04:30;18.80;;;15.23;;
26411;SDS011;59168;;;2022-08-19T07:06:58;16.55;;;13.70;;
26411;SDS011;59168;;;2022-08-19T07:09:32;15.52;;;13.90;;
26411;SDS011;59168;;;2022-08-19T07:11:58;18.10;;;14.07;;
26411;SDS011;59168;;;2022-08-19T07:14:26;13.80;;;12.40;;
26411;SDS011;59168;;;2022-08-19T07:16:53;14.60;;;12.10;;
26411;SDS011;59168;;;2022-08-19T07:19:20;13.82;;;12.20;;
26411;SDS011;59168;;;2022-08-19T07:21:47;12.65;;;11.35;;
26411;SDS011;59168;;;2022-08-19T07:24:15;15.75;;;12.05;;
26411;SDS011;59168;;;2022-08-19T07:26:42;14.43;;;11.73;;
26411;SDS011;59168;;;2022-08-19T07:29:08;13.63;;;12.13;;
26411;SDS011;59168;;;2022-08-19T07:31:34;15.25;;;13.32;;
26411;SDS011;59168;;;2022-08-19T07:34:04;15.93;;;14.23;;
26411;SDS011;59168;;;2022-08-19T07:36:34;16.35;;;13.20;;
26411;SDS011;59168;;;2022-08-19T07:39:04;18.92;;;13.75;;
26411;SDS011;59168;;;2022-08-19T07:41:34;15.68;;;13.73;;
26411;SDS011;59168;;;2022-08-19T07:44:02;15.32;;;13.75;;
26411;SDS011;59168;;;2022-08-19T07:46:30;15.57;;;13.95;;
26411;SDS011;59168;;;2022-08-19T07:48:57;15.73;;;14.18;;
26411;SDS011;59168;;;2022-08-19T07:51:23;16.85;;;15.05;;
26411;SDS011;59168;;;2022-08-19T07:53:49;16.08;;;14.35;;
26411;SDS011;59168;;;2022-08-19T07:56:16;20.27;;;15.27;;
26411;SDS011;59168;;;2022-08-19T07:58:44;17.23;;;15.52;;
26411;SDS011;59168;;;2022-08-19T08:01:13;20.17;;;16.05;;
26411;SDS011;59168;;;2022-08-19T08:03:41;17.15;;;15.50;;
26411;SDS011;59168;;;2022-08-19T08:06:25;18.70;;;16.70;;
26411;SDS011;59168;;;2022-08-19T08:09:10;18.20;;;16.17;;
26411;SDS011;59168;;;2022-08-19T08:11:38;20.05;;;15.45;;
26411;SDS011;59168;;;2022-08-19T08:14:04;17.95;;;16.05;;
26411;SDS011;59168;;;2022-08-19T08:16:33;20.73;;;16.92;;
26411;SDS011;59168;;;2022-08-19T08:19:05;18.73;;;16.73;;
26411;SDS011;59168;;;2022-08-19T08:21:31;19.58;;;17.48;;
26411;SDS011;59168;;;2022-08-19T08:23:58;19.33;;;16.83;;
26411;SDS011;59168;;;2022-08-19T08:26:24;20.52;;;18.10;;
26411;SDS011;59168;;;2022-08-19T08:28:50;20.48;;;18.13;;
26411;SDS011;59168;;;2022-08-19T08:31:17;21.23;;;17.75;;
26411;SDS011;59168;;;2022-08-19T08:33:44;21.25;;;17.67;;
26411;SDS011;59168;;;2022-08-19T08:36:10;21.75;;;18.50;;
26411;SDS011;59168;;;2022-08-19T08:38:39;23.23;;;19.05;;
26411;SDS011;59168;;;2022-08-19T08:41:11;21.30;;;18.83;;
26411;SDS011;59168;;;2022-08-19T08:43:47;21.00;;;18.60;;
26411;SDS011;59168;;;2022-08-19T08:51:25;23.42;;;19.08;;
26411;SDS011;59168;;;2022-08-19T08:53:59;21.30;;;19.10;;
26411;SDS011;59168;;;2022-08-19T08:56:26;21.33;;;19.15;;
26411;SDS011;59168;;;2022-08-19T08:58:58;21.52;;;18.35;;
26411;SDS011;59168;;;2022-08-19T09:01:32;20.98;;;18.77;;
26411;SDS011;59168;;;2022-08-19T09:03:58;20.10;;;18.05;;
26411;SDS011;59168;;;2022-08-19T09:06:37;20.02;;;17.95;;
26411;SDS011;59168;;;2022-08-19T09:09:20;20.63;;;18.42;;
26411;SDS011;59168;;;2022-08-19T09:14:48;20.63;;;17.95;;
26411;SDS011;59168;;;2022-08-19T09:17:20;20.30;;;18.20;;
26411;SDS011;59168;;;2022-08-19T09:22:30;20.50;;;18.33;;
26411;SDS011;59168;;;2022-08-19T09:24:56;20.83;;;18.58;;
26411;SDS011;59168;;;2022-08-19T09:27:22;21.40;;;18.30;;
26411;SDS011;59168;;;2022-08-19T09:29:49;19.15;;;17.17;;
26411;SDS011;59168;;;2022-08-19T09:32:15;17.83;;;15.95;;
26411;SDS011;59168;;;2022-08-19T09:34:43;19.33;;;17.25;;
26411;SDS011;59168;;;2022-08-19T09:37:09;19.35;;;15.82;;
26411;SDS011;59168;;;2022-08-19T09:39:35;17.90;;;16.00;;
26411;SDS011;59168;;;2022-08-19T09:42:00;18.65;;;16.20;;
26411;SDS011;59168;;;2022-08-19T09:44:28;21.98;;;16.27;;
26411;SDS011;59168;;;2022-08-19T09:46:54;16.83;;;15.13;;
26411;SDS011;59168;;;2022-08-19T09:49:20;17.52;;;14.82;;
26411;SDS011;59168;;;2022-08-19T09:51:49;16.35;;;14.65;;
26411;SDS011;59168;;;2022-08-19T09:54:15;16.05;;;14.38;;
26411;SDS011;59168;;;2022-08-19T09:56:41;16.08;;;14.40;;
26411;SDS011;59168;;;2022-08-19T09:59:07;15.65;;;14.15;;
26411;SDS011;59168;;;2022-08-19T10:01:34;15.63;;;14.02;;
26411;SDS011;59168;;;2022-08-19T10:04:00;17.55;;;15.77;;
26411;SDS011;59168;;;2022-08-19T10:06:29;16.17;;;14.45;;
26411;SDS011;59168;;;2022-08-19T10:08:57;15.98;;;14.27;;
26411;SDS011;59168;;;2022-08-19T10:11:23;15.63;;;14.02;;
26411;SDS011;59168;;;2022-08-19T10:13:49;17.13;;;14.40;;
26411;SDS011;59168;;;2022-08-19T10:16:16;17.13;;;15.32;;
26411;SDS011;59168;;;2022-08-19T10:18:44;16.10;;;14.40;;
26411;SDS011;59168;;;2022-08-19T10:21:15;16.88;;;15.25;;
26411;SDS011;59168;;;2022-08-19T10:23:44;16.65;;;14.38;;
26411;SDS011;59168;;;2022-08-19T10:26:12;18.42;;;14.48;;
26411;SDS011;59168;;;2022-08-19T10:28:39;14.07;;;12.68;;
26411;SDS011;59168;;;2022-08-19T10:31:24;16.67;;;13.25;;
26411;SDS011;59168;;;2022-08-19T10:33:53;14.13;;;12.70;;
26411;SDS011;59168;;;2022-08-19T10:36:23;15.07;;;12.70;;
26411;SDS011;59168;;;2022-08-19T10:38:56;15.50;;;12.27;;
26411;SDS011;59168;;;2022-08-19T10:41:25;14.27;;;12.77;;
26411;SDS011;59168;;;2022-08-19T10:43:53;14.02;;;12.57;;
26411;SDS011;59168;;;2022-08-19T10:46:22;15.10;;;13.55;;
26411;SDS011;59168;;;2022-08-19T10:48:49;15.18;;;13.10;;
26411;SDS011;59168;;;2022-08-19T10:51:16;14.68;;;12.52;;
26411;SDS011;59168;;;2022-08-19T10:54:00;14.93;;;13.27;;
26411;SDS011;59168;;;2022-08-19T10:56:27;16.83;;;13.75;;
26411;SDS011;59168;;;2022-08-19T10:59:13;14.40;;;12.95;;
26411;SDS011;59168;;;2022-08-19T11:01:39;14.93;;;13.27;;
26411;SDS011;59168;;;2022-08-19T11:04:06;14.70;;;13.18;;
26411;SDS011;59168;;;2022-08-19T11:06:35;15.77;;;13.98;;
26411;SDS011;59168;;;2022-08-19T11:09:01;14.82;;;13.32;;
26411;SDS011;59168;;;2022-08-19T11:11:27;15.38;;;13.77;;
26411;SDS011;59168;;;2022-08-19T11:13:53;15.35;;;13.23;;
26411;SDS011;59168;;;2022-08-19T11:16:20;17.75;;;14.80;;
26411;SDS011;59168;;;2022-08-19T11:18:52;16.05;;;14.43;;
26411;SDS011;59168;;;2022-08-19T11:21:21;16.05;;;14.40;;
26411;SDS011;59168;;;2022-08-19T11:23:50;16.67;;;14.93;;
26411;SDS011;59168;;;2022-08-19T11:26:18;18.88;;;14.80;;
26411;SDS011;59168;;;2022-08-19T11:28:45;17.90;;;14.75;;
26411;SDS011;59168;;;2022-08-19T11:31:16;18.85;;;14.25;;
26411;SDS011;59168;;;2022-08-19T11:33:44;16.03;;;13.90;;
26411;SDS011;59168;;;2022-08-19T11:36:11;15.63;;;14.05;;
26411;SDS011;59168;;;2022-08-19T11:38:37;15.20;;;13.02;;
26411;SDS011;59168;;;2022-08-19T11:41:04;14.90;;;13.05;;
26411;SDS011;59168;;;2022-08-19T11:43:32;15.68;;;13.18;;
26411;SDS011;59168;;;2022-08-19T11:45:58;15.20;;;13.38;;
26411;SDS011;59168;;;2022-08-19T11:48:25;14.57;;;13.25;;
26411;SDS011;59168;;;2022-08-19T11:50:51;13.30;;;11.65;;
26411;SDS011;59168;;;2022-08-19T11:53:20;12.68;;;11.48;;
26411;SDS011;59168;;;2022-08-19T11:55:46;13.13;;;11.68;;
26411;SDS011;59168;;;2022-08-19T11:58:13;12.40;;;10.98;;
26411;SDS011;59168;;;2022-08-19T12:00:40;11.57;;;10.38;;
26411;SDS011;59168;;;2022-08-19T12:03:06;11.48;;;10.38;;
26411;SDS011;59168;;;2022-08-19T12:05:32;10.95;;;9.90;;
26411;SDS011;59168;;;2022-08-19T12:07:58;13.43;;;9.82;;
26411;SDS011;59168;;;2022-08-19T12:10:23;11.13;;;9.63;;
26411;SDS011;59168;;;2022-08-19T12:12:49;10.68;;;9.68;;
26411;SDS011;59168;;;2022-08-19T12:15:15;10.70;;;9.43;;
26411;SDS011;59168;;;2022-08-19T12:17:41;9.82;;;9.00;;
26411;SDS011;59168;;;2022-08-19T12:20:08;10.52;;;9.43;;
26411;SDS011;59168;;;2022-08-19T12:22:38;10.38;;;9.25;;
26411;SDS011;59168;;;2022-08-19T12:25:06;10.70;;;9.70;;
26411;SDS011;59168;;;2022-08-19T12:27:33;10.50;;;9.52;;
26411;SDS011;59168;;;2022-08-19T12:30:00;11.02;;;9.93;;
26411;SDS011;59168;;;2022-08-19T12:32:26;11.05;;;10.05;;
26411;SDS011;59168;;;2022-08-19T12:34:52;12.20;;;11.00;;
26411;SDS011;59168;;;2022-08-19T12:37:18;10.48;;;9.48;;
26411;SDS011;59168;;;2022-08-19T12:39:43;11.90;;;9.68;;
26411;SDS011;59168;;;2022-08-19T12:42:10;10.98;;;9.88;;
26411;SDS011;59168;;;2022-08-19T12:44:38;10.57;;;9.60;;
26411;SDS011;59168;;;2022-08-19T12:47:05;11.27;;;10.15;;
26411;SDS011;59168;;;2022-08-19T12:49:31;11.68;;;10.57;;
26411;SDS011;59168;;;2022-08-19T12:51:59;11.20;;;10.07;;
26411;SDS011;59168;;;2022-08-19T12:54:32;10.68;;;9.57;;
26411;SDS011;59168;;;2022-08-19T12:56:59;11.48;;;10.38;;
26411;SDS011;59168;;;2022-08-19T12:59:25;9.70;;;8.70;;
26411;SDS011;59168;;;2022-08-19T13:01:51;10.25;;;9.25;;
26411;SDS011;59168;;;2022-08-19T13:04:17;10.65;;;8.73;;
26411;SDS011;59168;;;2022-08-19T13:06:43;10.02;;;9.02;;
26411;SDS011;59168;;;2022-08-19T13:09:09;10.15;;;9.15;;
26411;SDS011;59168;;;2022-08-19T13:11:35;10.75;;;8.57;;
26411;SDS011;59168;;;2022-08-19T13:14:02;9.32;;;8.43;;
26411;SDS011;59168;;;2022-08-19T13:16:28;9.95;;;8.60;;
26411;SDS011;59168;;;2022-08-19T13:18:55;10.82;;;7.85;;
26411;SDS011;59168;;;2022-08-19T13:21:22;9.23;;;8.30;;
26411;SDS011;59168;;;2022-08-19T13:23:51;9.80;;;8.82;;
26411;SDS011;59168;;;2022-08-19T13:26:17;9.55;;;8.65;;
26411;SDS011;59168;;;2022-08-19T13:28:44;8.50;;;7.78;;
26411;SDS011;59168;;;2022-08-19T13:31:30;9.40;;;8.50;;
26411;SDS011;59168;;;2022-08-19T13:34:17;11.73;;;10.35;;
26411;SDS011;59168;;;2022-08-19T13:36:45;18.02;;;15.20;;
26411;SDS011;59168;;;2022-08-19T13:39:10;17.70;;;15.68;;
26411;SDS011;59168;;;2022-08-19T13:41:37;19.42;;;16.67;;
